Time;durP1;ratioP1;P1;durP2;ratioP2;P2;SDS_P1;SDS_P2;PMS_P1;PMS_P2;Temp;Humidity;BMP_temperature;BMP_pressure;BME280_temperature;BME280_humidity;BME280_pressure;Samples;Min_cycle;Max_cycle;Signal;HPM_P1;HPM_P2
2021/08/16 00:01:43;;;;;;;18.48;7.75;;;;;;;;;;5077198;28;20582;-57
2021/08/16 00:04:08;;;;;;;15.10;7.00;;;;;;;;;;5076237;28;20055;-58
2021/08/16 00:06:34;;;;;;;27.05;8.10;;;;;;;;;;5074037;28;20502;-59
2021/08/16 00:08:59;;;;;;;21.90;8.65;;;;;;;;;;5072210;28;20081;-59
2021/08/16 00:11:24;;;;;;;17.85;8.90;;;;;;;;;;5076329;28;20107;-59
2021/08/16 00:13:50;;;;;;;19.80;6.93;;;;;;;;;;5070965;28;20051;-59
2021/08/16 00:16:15;;;;;;;19.70;9.65;;;;;;;;;;5077405;28;20108;-58
2021/08/16 00:18:40;;;;;;;11.20;5.75;;;;;;;;;;5073243;28;20471;-58
2021/08/16 00:21:06;;;;;;;17.50;7.55;;;;;;;;;;5073526;28;20028;-58
2021/08/16 00:23:31;;;;;;;17.33;6.90;;;;;;;;;;5076927;28;20017;-58
2021/08/16 00:25:56;;;;;;;14.63;8.35;;;;;;;;;;5075110;28;20099;-58
2021/08/16 00:28:22;;;;;;;15.32;6.03;;;;;;;;;;5072658;28;20590;-58
2021/08/16 00:30:47;;;;;;;15.65;6.50;;;;;;;;;;5075842;28;20032;-58
2021/08/16 00:33:12;;;;;;;15.18;7.20;;;;;;;;;;5074653;28;20151;-58
2021/08/16 00:35:37;;;;;;;17.63;6.32;;;;;;;;;;5075269;28;20108;-58
2021/08/16 00:38:03;;;;;;;13.35;8.18;;;;;;;;;;5078393;28;20904;-58
2021/08/16 00:40:29;;;;;;;12.57;5.90;;;;;;;;;;5068185;28;20142;-58
2021/08/16 00:42:54;;;;;;;18.88;6.20;;;;;;;;;;5070311;28;20080;-57
2021/08/16 00:45:19;;;;;;;16.65;6.35;;;;;;;;;;5070440;28;20162;-58
2021/08/16 00:47:44;;;;;;;21.55;7.07;;;;;;;;;;5072798;28;20024;-58
2021/08/16 00:50:11;;;;;;;15.88;6.97;;;;;;;;;;5068437;28;20020;-59
2021/08/16 00:52:37;;;;;;;18.60;7.03;;;;;;;;;;5076706;28;20024;-58
2021/08/16 00:55:04;;;;;;;5.60;3.63;;;;;;;;;;5071457;28;20185;-58
2021/08/16 00:57:30;;;;;;;18.20;7.97;;;;;;;;;;5073530;28;20048;-58
2021/08/16 00:59:56;;;;;;;28.65;7.28;;;;;;;;;;5072227;28;20104;-58
2021/08/16 01:02:21;;;;;;;18.83;7.30;;;;;;;;;;5073495;28;20052;-59
2021/08/16 01:04:47;;;;;;;16.92;7.57;;;;;;;;;;5072619;28;20042;-58
2021/08/16 01:07:12;;;;;;;9.98;7.05;;;;;;;;;;5071940;28;20081;-58
2021/08/16 01:09:38;;;;;;;20.60;6.90;;;;;;;;;;5081215;28;20085;-58
2021/08/16 01:12:03;;;;;;;24.38;7.97;;;;;;;;;;5078899;28;20015;-59
2021/08/16 01:14:29;;;;;;;20.55;7.15;;;;;;;;;;5081318;28;20149;-58
2021/08/16 01:16:54;;;;;;;16.77;7.50;;;;;;;;;;5079031;28;20029;-58
2021/08/16 01:19:20;;;;;;;20.02;9.02;;;;;;;;;;5080355;28;20518;-58
2021/08/16 01:21:46;;;;;;;19.25;7.43;;;;;;;;;;5079819;28;20016;-58
2021/08/16 01:24:11;;;;;;;18.02;9.45;;;;;;;;;;5082370;28;20027;-58
2021/08/16 01:26:36;;;;;;;11.45;7.35;;;;;;;;;;5082746;28;20024;-59
2021/08/16 01:29:04;;;;;;;14.48;7.38;;;;;;;;;;5082083;28;20365;-58
2021/08/16 01:31:29;;;;;;;16.42;6.97;;;;;;;;;;5076312;28;20062;-58
2021/08/16 01:33:54;;;;;;;20.33;8.43;;;;;;;;;;5071490;28;20017;-59
2021/08/16 01:36:20;;;;;;;11.52;6.18;;;;;;;;;;5078744;28;20027;-58
2021/08/16 01:38:45;;;;;;;27.52;10.77;;;;;;;;;;5076658;28;20074;-58
2021/08/16 01:41:13;;;;;;;15.48;8.68;;;;;;;;;;5079413;28;20530;-58
2021/08/16 01:43:39;;;;;;;33.78;6.50;;;;;;;;;;5078737;28;20029;-58
2021/08/16 01:46:09;;;;;;;14.77;9.45;;;;;;;;;;5080489;28;20020;-58
2021/08/16 01:48:35;;;;;;;19.98;6.38;;;;;;;;;;5079328;28;20024;-58
2021/08/16 01:51:06;;;;;;;16.65;6.78;;;;;;;;;;5079605;28;20022;-59
2021/08/16 01:53:40;;;;;;;25.92;9.70;;;;;;;;;;5079943;28;20563;-57
2021/08/16 01:56:13;;;;;;;15.00;5.07;;;;;;;;;;5075413;28;20029;-58
2021/08/16 01:58:38;;;;;;;15.35;8.00;;;;;;;;;;5080476;28;20020;-59
2021/08/16 02:01:06;;;;;;;12.55;8.52;;;;;;;;;;5082450;28;20027;-59
2021/08/16 02:03:35;;;;;;;42.58;11.60;;;;;;;;;;5083162;28;20108;-58
2021/08/16 02:06:03;;;;;;;12.40;6.03;;;;;;;;;;5076572;28;20499;-58
2021/08/16 02:09:00;;;;;;;30.48;9.68;;;;;;;;;;5076008;28;20137;-59
2021/08/16 02:11:28;;;;;;;13.63;8.73;;;;;;;;;;5081340;28;20019;-58
2021/08/16 02:14:03;;;;;;;21.58;10.43;;;;;;;;;;5081525;28;20022;-58
2021/08/16 02:16:28;;;;;;;11.10;8.77;;;;;;;;;;5079343;28;20511;-59
2021/08/16 02:18:57;;;;;;;45.35;10.63;;;;;;;;;;5077233;28;20021;-58
2021/08/16 02:21:33;;;;;;;26.08;8.35;;;;;;;;;;5072778;28;20060;-59
2021/08/16 02:24:04;;;;;;;21.23;8.75;;;;;;;;;;5074877;28;20038;-58
2021/08/16 02:26:38;;;;;;;;;;;;;;;;;;5074979;28;20052;-58
2021/08/16 02:29:03;;;;;;;24.48;8.93;;;;;;;;;;5074525;28;19908;-58
2021/08/16 02:31:35;;;;;;;17.95;7.72;;;;;;;;;;5080825;28;20034;-56
2021/08/16 02:34:07;;;;;;;15.43;8.98;;;;;;;;;;5079337;28;20463;-58
2021/08/16 02:36:35;;;;;;;13.45;8.73;;;;;;;;;;5073804;28;20043;-59
2021/08/16 02:39:00;;;;;;;16.50;6.63;;;;;;;;;;5080360;28;20087;-59
2021/08/16 02:41:26;;;;;;;11.13;6.43;;;;;;;;;;5074176;28;20078;-58
2021/08/16 02:43:51;;;;;;;15.15;9.68;;;;;;;;;;5069866;28;20064;-58
2021/08/16 02:46:19;;;;;;;25.67;9.68;;;;;;;;;;5072178;28;20024;-58
2021/08/16 02:48:44;;;;;;;26.40;9.20;;;;;;;;;;5073203;28;20020;-59
2021/08/16 02:51:09;;;;;;;29.60;8.25;;;;;;;;;;5073986;28;20020;-59
2021/08/16 02:53:34;;;;;;;18.85;8.73;;;;;;;;;;5072338;28;20550;-58
2021/08/16 02:56:00;;;;;;;14.80;8.75;;;;;;;;;;5071657;28;20020;-59
2021/08/16 02:58:26;;;;;;;11.68;7.15;;;;;;;;;;5077107;28;20097;-58
2021/08/16 03:00:51;;;;;;;27.30;10.00;;;;;;;;;;5076291;28;20030;-59
2021/08/16 03:03:16;;;;;;;21.77;8.05;;;;;;;;;;5076497;28;20040;-58
2021/08/16 03:05:41;;;;;;;27.08;11.65;;;;;;;;;;5075593;28;20541;-59
2021/08/16 03:08:07;;;;;;;31.75;9.65;;;;;;;;;;5075513;28;20099;-58
2021/08/16 03:10:33;;;;;;;22.42;8.50;;;;;;;;;;5073217;28;20467;-58
2021/08/16 03:12:59;;;;;;;16.83;9.57;;;;;;;;;;5076022;28;20047;-58
2021/08/16 03:15:24;;;;;;;14.77;8.70;;;;;;;;;;5073684;28;20108;-59
2021/08/16 03:17:50;;;;;;;18.30;8.20;;;;;;;;;;5073613;28;20028;-58
2021/08/16 03:20:15;;;;;;;15.07;7.88;;;;;;;;;;5078210;28;20036;-59
2021/08/16 03:22:40;;;;;;;17.67;8.52;;;;;;;;;;5072073;28;20017;-59
2021/08/16 03:25:06;;;;;;;18.55;8.65;;;;;;;;;;5074643;28;20670;-58
2021/08/16 03:27:31;;;;;;;15.80;7.22;;;;;;;;;;5078039;28;20479;-59
2021/08/16 03:29:57;;;;;;;15.18;8.05;;;;;;;;;;5078723;28;20020;-59
2021/08/16 03:32:22;;;;;;;34.95;8.80;;;;;;;;;;5071860;28;20031;-58
2021/08/16 03:34:48;;;;;;;21.10;7.43;;;;;;;;;;5069484;28;20017;-58
2021/08/16 03:37:14;;;;;;;33.55;8.85;;;;;;;;;;5078448;28;20435;-59
2021/08/16 03:39:39;;;;;;;22.40;9.40;;;;;;;;;;5075494;28;20056;-50
2021/08/16 03:42:04;;;;;;;23.65;7.97;;;;;;;;;;5073258;28;20032;-52
2021/08/16 03:44:30;;;;;;;19.10;9.07;;;;;;;;;;5075731;28;20092;-47
2021/08/16 03:46:56;;;;;;;24.33;9.25;;;;;;;;;;5076326;28;20024;-46
2021/08/16 03:49:21;;;;;;;13.82;7.60;;;;;;;;;;5072561;28;20027;-46
2021/08/16 03:51:46;;;;;;;18.33;9.70;;;;;;;;;;5075957;28;20020;-47
2021/08/16 03:54:12;;;;;;;20.58;6.68;;;;;;;;;;5069540;28;20017;-49
2021/08/16 03:56:37;;;;;;;12.02;7.38;;;;;;;;;;5075177;28;20031;-47
2021/08/16 03:59:02;;;;;;;19.48;8.55;;;;;;;;;;5075310;28;20105;-46
2021/08/16 04:01:28;;;;;;;37.47;9.93;;;;;;;;;;5075740;28;20016;-48
2021/08/16 04:03:53;;;;;;;27.23;9.55;;;;;;;;;;5075175;28;20028;-49
2021/08/16 04:06:18;;;;;;;16.83;9.05;;;;;;;;;;5074263;28;20039;-47
2021/08/16 04:08:44;;;;;;;13.35;7.90;;;;;;;;;;5074101;28;20380;-48
2021/08/16 04:11:11;;;;;;;22.38;9.80;;;;;;;;;;5076831;28;20028;-49
2021/08/16 04:13:36;;;;;;;25.25;8.95;;;;;;;;;;5074807;28;20093;-48
2021/08/16 04:16:03;;;;;;;18.08;9.52;;;;;;;;;;5078160;28;20036;-48
2021/08/16 04:18:28;;;;;;;18.08;9.05;;;;;;;;;;5074444;28;20024;-50
2021/08/16 04:20:53;;;;;;;25.17;8.35;;;;;;;;;;5073184;28;20042;-48
2021/08/16 04:23:19;;;;;;;29.73;9.05;;;;;;;;;;5070918;28;20028;-50
2021/08/16 04:25:44;;;;;;;29.17;9.48;;;;;;;;;;5077564;28;20019;-49
2021/08/16 04:28:09;;;;;;;16.52;8.70;;;;;;;;;;5074232;28;20032;-48
2021/08/16 04:30:35;;;;;;;23.80;9.25;;;;;;;;;;5069747;28;20020;-46
2021/08/16 04:33:00;;;;;;;25.42;7.45;;;;;;;;;;5073439;28;20016;-50
2021/08/16 04:35:25;;;;;;;22.90;8.57;;;;;;;;;;5074180;28;20025;-48
2021/08/16 04:37:51;;;;;;;21.58;8.60;;;;;;;;;;5073827;28;20158;-48
2021/08/16 04:40:16;;;;;;;36.10;10.15;;;;;;;;;;5076049;28;20024;-46
2021/08/16 04:42:42;;;;;;;14.90;7.82;;;;;;;;;;5071840;28;20079;-47
2021/08/16 04:45:08;;;;;;;23.40;9.07;;;;;;;;;;5074613;28;20020;-51
2021/08/16 04:47:34;;;;;;;24.27;10.73;;;;;;;;;;5074988;28;20020;-52
2021/08/16 04:49:59;;;;;;;14.40;9.02;;;;;;;;;;5075664;28;20024;-50
2021/08/16 04:52:24;;;;;;;29.98;10.23;;;;;;;;;;5075894;28;20459;-49
2021/08/16 04:54:50;;;;;;;23.58;10.45;;;;;;;;;;5072890;28;20020;-52
2021/08/16 04:57:26;;;;;;;22.52;8.30;;;;;;;;;;5070259;28;20240;-51
2021/08/16 04:59:51;;;;;;;17.63;8.48;;;;;;;;;;5074833;28;20024;-51
2021/08/16 05:02:17;;;;;;;19.63;9.48;;;;;;;;;;5071824;28;20054;-51
2021/08/16 05:04:42;;;;;;;19.52;9.32;;;;;;;;;;5073554;28;20035;-49
2021/08/16 05:07:07;;;;;;;15.13;8.63;;;;;;;;;;5071256;28;20078;-52
2021/08/16 05:09:32;;;;;;;10.70;7.53;;;;;;;;;;5071746;28;20044;-48
2021/08/16 05:11:58;;;;;;;23.02;10.55;;;;;;;;;;5073312;28;20035;-45
2021/08/16 05:14:23;;;;;;;20.15;9.50;;;;;;;;;;5072726;28;20647;-47
2021/08/16 05:16:48;;;;;;;23.30;8.77;;;;;;;;;;5072178;28;20063;-48
2021/08/16 05:19:14;;;;;;;23.60;8.60;;;;;;;;;;5075429;28;20024;-50
2021/08/16 05:21:39;;;;;;;19.75;8.40;;;;;;;;;;5072271;28;20059;-52
2021/08/16 05:24:04;;;;;;;21.35;8.50;;;;;;;;;;5072365;28;20429;-52
2021/08/16 05:26:29;;;;;;;22.23;9.27;;;;;;;;;;5072746;28;20043;-52
2021/08/16 05:28:55;;;;;;;16.42;7.65;;;;;;;;;;5068081;28;20013;-50
2021/08/16 05:31:20;;;;;;;28.67;9.75;;;;;;;;;;5072270;28;20078;-48
2021/08/16 05:33:45;;;;;;;23.85;8.43;;;;;;;;;;5072431;28;20487;-48
2021/08/16 05:36:11;;;;;;;16.23;7.22;;;;;;;;;;5077441;28;20127;-46
2021/08/16 05:38:36;;;;;;;27.90;8.00;;;;;;;;;;5076790;28;20103;-48
2021/08/16 05:41:01;;;;;;;23.42;9.05;;;;;;;;;;5066261;28;20051;-47
2021/08/16 05:43:26;;;;;;;26.05;11.05;;;;;;;;;;5074546;28;20016;-46
2021/08/16 05:45:52;;;;;;;32.10;10.43;;;;;;;;;;5074331;28;20107;-50
2021/08/16 05:48:17;;;;;;;14.02;11.95;;;;;;;;;;5080524;28;20384;-48
2021/08/16 05:50:43;;;;;;;24.20;9.52;;;;;;;;;;5078284;28;20024;-45
2021/08/16 05:53:09;;;;;;;25.35;10.88;;;;;;;;;;5075202;28;20116;-49
2021/08/16 05:55:34;;;;;;;16.38;9.80;;;;;;;;;;5071231;28;20702;-47
2021/08/16 05:57:59;;;;;;;24.48;10.00;;;;;;;;;;5075732;28;20024;-46
2021/08/16 06:00:25;;;;;;;22.17;8.07;;;;;;;;;;5079547;28;20075;-51
2021/08/16 06:02:50;;;;;;;25.73;9.85;;;;;;;;;;5078053;28;20415;-51
2021/08/16 06:05:15;;;;;;;21.67;9.15;;;;;;;;;;5079289;28;20383;-48
2021/08/16 06:07:41;;;;;;;22.75;11.63;;;;;;;;;;5077035;28;20120;-46
2021/08/16 06:10:07;;;;;;;23.35;11.00;;;;;;;;;;5067480;28;20100;-49
2021/08/16 06:12:33;;;;;;;27.25;9.38;;;;;;;;;;5078346;28;20463;-46
2021/08/16 06:14:58;;;;;;;26.67;9.15;;;;;;;;;;5078084;28;20024;-46
2021/08/16 06:17:24;;;;;;;20.63;8.07;;;;;;;;;;5074273;28;20033;-48
2021/08/16 06:19:49;;;;;;;13.68;7.15;;;;;;;;;;5074453;28;20028;-45
2021/08/16 06:22:14;;;;;;;17.77;6.57;;;;;;;;;;5073682;28;20368;-51
2021/08/16 06:24:40;;;;;;;20.55;8.77;;;;;;;;;;5074297;28;20053;-51
2021/08/16 06:27:05;;;;;;;27.45;9.15;;;;;;;;;;5074157;28;20032;-47
2021/08/16 06:29:31;;;;;;;19.40;8.60;;;;;;;;;;5077033;28;20119;-46
2021/08/16 06:31:56;;;;;;;30.33;9.88;;;;;;;;;;5079569;28;20019;-50
2021/08/16 06:34:23;;;;;;;31.40;8.85;;;;;;;;;;5078745;28;20020;-45
2021/08/16 06:36:53;;;;;;;13.60;8.38;;;;;;;;;;5073890;28;20821;-51
2021/08/16 06:39:19;;;;;;;;;;;;;;;;;;5076894;28;20033;-51
2021/08/16 06:41:48;;;;;;;36.23;11.03;;;;;;;;;;5073834;28;19915;-48
2021/08/16 06:44:13;;;;;;;28.95;10.63;;;;;;;;;;5076768;28;20039;-45
2021/08/16 06:46:39;;;;;;;27.35;9.60;;;;;;;;;;5077182;28;20024;-47
2021/08/16 06:49:04;;;;;;;24.90;9.05;;;;;;;;;;5077040;28;20025;-50
2021/08/16 06:51:30;;;;;;;30.35;10.15;;;;;;;;;;5077205;28;20062;-50
2021/08/16 06:53:55;;;;;;;17.48;7.65;;;;;;;;;;5075076;28;20058;-48
2021/08/16 06:56:20;;;;;;;18.10;8.50;;;;;;;;;;5075627;28;20041;-45
2021/08/16 06:58:46;;;;;;;36.03;11.27;;;;;;;;;;5077766;28;20044;-46
2021/08/16 07:01:18;;;;;;;20.95;6.40;;;;;;;;;;5075465;28;20417;-50
2021/08/16 07:03:43;;;;;;;20.17;8.20;;;;;;;;;;5076672;28;20067;-48
2021/08/16 07:06:09;;;;;;;25.35;11.90;;;;;;;;;;5075068;28;20093;-47
2021/08/16 07:08:34;;;;;;;36.28;9.20;;;;;;;;;;5073672;28;20502;-47
2021/08/16 07:10:59;;;;;;;23.70;9.90;;;;;;;;;;5079361;28;20023;-48
2021/08/16 07:13:25;;;;;;;25.40;12.50;;;;;;;;;;5074462;28;20051;-46
2021/08/16 07:15:50;;;;;;;14.13;7.80;;;;;;;;;;5070760;28;20475;-49
2021/08/16 07:18:16;;;;;;;19.75;9.35;;;;;;;;;;5072359;28;20039;-46
2021/08/16 07:20:44;;;;;;;10.55;7.10;;;;;;;;;;5070198;28;20024;-49
2021/08/16 07:23:09;;;;;;;19.25;8.98;;;;;;;;;;5070794;28;20040;-50
2021/08/16 07:25:34;;;;;;;16.35;8.73;;;;;;;;;;5065173;28;20074;-49
2021/08/16 07:28:00;;;;;;;27.38;9.73;;;;;;;;;;5069567;28;20810;-47
2021/08/16 07:30:26;;;;;;;21.30;8.43;;;;;;;;;;5064613;28;20049;-47
2021/08/16 07:32:51;;;;;;;16.05;8.18;;;;;;;;;;5073722;28;20398;-48
2021/08/16 07:35:16;;;;;;;43.80;10.35;;;;;;;;;;5072572;28;20028;-50
2021/08/16 07:37:42;;;;;;;25.35;10.73;;;;;;;;;;5073031;28;20058;-47
2021/08/16 07:40:09;;;;;;;51.92;12.23;;;;;;;;;;5075550;28;20032;-50
2021/08/16 07:42:34;;;;;;;24.33;10.15;;;;;;;;;;5074735;28;20031;-46
2021/08/16 07:44:59;;;;;;;23.23;10.18;;;;;;;;;;5070930;28;20032;-51
2021/08/16 07:47:26;;;;;;;13.40;7.53;;;;;;;;;;5074798;28;20047;-46
2021/08/16 07:49:51;;;;;;;23.52;8.77;;;;;;;;;;5071550;28;20290;-49
2021/08/16 07:52:16;;;;;;;20.17;8.40;;;;;;;;;;5070495;28;20574;-50
2021/08/16 07:54:42;;;;;;;21.85;9.07;;;;;;;;;;5069929;28;20824;-48
2021/08/16 07:57:08;;;;;;;12.55;7.30;;;;;;;;;;5068146;28;20032;-49
2021/08/16 07:59:33;;;;;;;38.95;8.65;;;;;;;;;;5068943;28;20059;-47
2021/08/16 08:02:01;;;;;;;25.23;6.05;;;;;;;;;;5069389;28;20048;-47
2021/08/16 08:04:26;;;;;;;20.80;8.50;;;;;;;;;;5063222;28;20024;-50
2021/08/16 08:06:51;;;;;;;13.98;8.32;;;;;;;;;;5068757;28;20021;-49
2021/08/16 08:09:17;;;;;;;15.43;8.85;;;;;;;;;;5072153;28;20133;-49
2021/08/16 08:11:42;;;;;;;14.20;7.72;;;;;;;;;;5075688;28;20032;-51
2021/08/16 08:14:07;;;;;;;17.23;7.97;;;;;;;;;;5075788;28;20028;-49
2021/08/16 08:16:33;;;;;;;41.05;8.43;;;;;;;;;;5068264;28;20061;-49
2021/08/16 08:18:58;;;;;;;18.65;7.50;;;;;;;;;;5069401;28;20108;-49
2021/08/16 08:21:23;;;;;;;16.98;7.97;;;;;;;;;;5074946;28;20498;-51
2021/08/16 08:23:48;;;;;;;31.55;9.02;;;;;;;;;;5073553;28;20149;-50
2021/08/16 08:26:14;;;;;;;12.45;6.88;;;;;;;;;;5069095;28;20507;-50
2021/08/16 08:28:39;;;;;;;11.77;5.63;;;;;;;;;;5069668;28;20025;-50
2021/08/16 08:31:04;;;;;;;11.75;7.22;;;;;;;;;;5070969;28;20487;-50
2021/08/16 08:33:30;;;;;;;14.13;5.90;;;;;;;;;;5073719;28;20028;-49
2021/08/16 08:35:55;;;;;;;22.95;7.15;;;;;;;;;;5074709;28;20021;-50
2021/08/16 08:38:20;;;;;;;28.65;11.23;;;;;;;;;;5073121;28;20078;-47
2021/08/16 08:40:46;;;;;;;26.05;8.68;;;;;;;;;;5071401;28;20043;-46
2021/08/16 08:43:12;;;;;;;17.98;8.48;;;;;;;;;;5073986;28;20031;-51
2021/08/16 08:45:38;;;;;;;17.25;7.05;;;;;;;;;;5074597;28;20028;-47
2021/08/16 08:48:04;;;;;;;16.58;5.80;;;;;;;;;;5069135;28;20032;-50
2021/08/16 08:50:29;;;;;;;20.40;8.35;;;;;;;;;;5074983;28;20103;-49
2021/08/16 08:52:57;;;;;;;17.02;6.13;;;;;;;;;;5075372;28;20052;-49
2021/08/16 08:55:22;;;;;;;12.35;6.78;;;;;;;;;;5073152;28;20023;-48
2021/08/16 08:57:48;;;;;;;16.23;7.05;;;;;;;;;;5072621;28;20024;-48
2021/08/16 09:00:19;;;;;;;13.65;5.47;;;;;;;;;;5074074;28;20029;-48
2021/08/16 09:03:13;;;;;;;20.80;7.72;;;;;;;;;;5071287;28;20046;-49
2021/08/16 09:05:49;;;;;;;12.65;6.07;;;;;;;;;;5065739;28;20131;-47
2021/08/16 09:08:21;;;;;;;19.60;5.75;;;;;;;;;;5070067;28;20104;-49
2021/08/16 09:10:46;;;;;;;16.42;6.72;;;;;;;;;;5075508;28;20024;-47
2021/08/16 09:13:11;;;;;;;28.25;8.82;;;;;;;;;;5075061;28;20031;-46
2021/08/16 09:15:37;;;;;;;9.20;4.15;;;;;;;;;;5066344;28;20075;-51
2021/08/16 09:18:05;;;;;;;25.80;7.80;;;;;;;;;;5069980;28;20543;-51
2021/08/16 09:20:33;;;;;;;20.73;4.72;;;;;;;;;;5072005;28;20523;-41
2021/08/16 09:23:01;;;;;;;17.02;5.13;;;;;;;;;;5074725;28;20440;-44
2021/08/16 09:25:29;;;;;;;12.13;5.55;;;;;;;;;;5074160;28;20021;-45
2021/08/16 09:27:54;;;;;;;10.48;5.55;;;;;;;;;;5074291;28;20025;-45
2021/08/16 09:30:28;;;;;;;18.55;7.43;;;;;;;;;;5076156;28;20027;-43
2021/08/16 09:32:53;;;;;;;9.88;5.13;;;;;;;;;;5080376;28;20416;-42
2021/08/16 09:35:20;;;;;;;14.30;5.90;;;;;;;;;;5076110;28;20030;-44
2021/08/16 09:37:52;;;;;;;10.85;4.93;;;;;;;;;;5079016;28;20115;-43
2021/08/16 09:40:18;;;;;;;12.10;4.72;;;;;;;;;;5074075;28;20036;-44
2021/08/16 09:42:47;;;;;;;8.50;3.47;;;;;;;;;;5075537;28;20024;-40
2021/08/16 09:45:13;;;;;;;8.80;4.93;;;;;;;;;;5075731;28;20067;-44
2021/08/16 09:47:40;;;;;;;21.63;6.55;;;;;;;;;;5079429;28;20032;-40
2021/08/16 09:50:05;;;;;;;7.50;4.20;;;;;;;;;;5076143;28;20542;-40
2021/08/16 09:52:32;;;;;;;7.50;4.68;;;;;;;;;;5074919;28;20020;-43
2021/08/16 09:54:58;;;;;;;9.55;5.30;;;;;;;;;;5074321;28;20017;-44
2021/08/16 09:57:24;;;;;;;14.07;5.88;;;;;;;;;;5082508;28;20034;-48
2021/08/16 09:59:50;;;;;;;25.42;7.88;;;;;;;;;;5079164;28;20020;-50
2021/08/16 10:02:16;;;;;;;3.47;2.80;;;;;;;;;;5075431;28;20604;-48
2021/08/16 10:04:41;;;;;;;13.85;6.50;;;;;;;;;;5077061;28;20016;-49
2021/08/16 10:07:09;;;;;;;11.75;4.55;;;;;;;;;;5076634;28;20013;-51
2021/08/16 10:09:35;;;;;;;8.63;5.00;;;;;;;;;;5076189;28;20017;-49
2021/08/16 10:12:01;;;;;;;20.70;9.95;;;;;;;;;;5076769;28;20537;-51
2021/08/16 10:14:31;;;;;;;28.10;8.70;;;;;;;;;;5075874;28;20752;-51
2021/08/16 10:16:57;;;;;;;11.73;5.32;;;;;;;;;;5076395;28;20024;-47
2021/08/16 10:19:25;;;;;;;8.95;4.03;;;;;;;;;;5071975;28;20127;-50
2021/08/16 10:21:51;;;;;;;11.73;4.55;;;;;;;;;;5078429;28;20130;-51
2021/08/16 10:24:17;;;;;;;17.52;6.18;;;;;;;;;;5073311;28;20104;-51
2021/08/16 10:26:53;;;;;;;19.88;6.32;;;;;;;;;;5076669;28;20025;-48
2021/08/16 10:29:18;;;;;;;11.63;5.60;;;;;;;;;;5077960;28;20024;-49
2021/08/16 10:31:50;;;;;;;6.45;2.80;;;;;;;;;;5076933;28;20391;-51
2021/08/16 10:34:23;;;;;;;18.67;6.55;;;;;;;;;;5072554;28;20016;-49
2021/08/16 10:36:55;;;;;;;10.35;5.93;;;;;;;;;;5077347;28;20020;-46
2021/08/16 10:39:31;;;;;;;10.13;4.55;;;;;;;;;;5076892;28;20031;-50
2021/08/16 10:42:03;;;;;;;14.45;5.35;;;;;;;;;;5072758;28;20019;-48
2021/08/16 10:44:36;;;;;;;7.18;3.65;;;;;;;;;;5077472;28;20027;-50
2021/08/16 10:47:02;;;;;;;7.40;4.45;;;;;;;;;;5073898;28;20115;-49
2021/08/16 10:49:34;;;;;;;14.95;6.75;;;;;;;;;;5069768;28;20077;-47
2021/08/16 10:51:59;;;;;;;15.60;5.82;;;;;;;;;;5076299;28;20204;-50
2021/08/16 10:54:28;;;;;;;21.63;7.13;;;;;;;;;;5076063;28;20044;-50
2021/08/16 10:56:55;;;;;;;7.28;4.88;;;;;;;;;;5077067;28;20106;-49
2021/08/16 10:59:21;;;;;;;14.05;6.45;;;;;;;;;;5073409;28;20103;-52
2021/08/16 11:01:47;;;;;;;9.38;4.35;;;;;;;;;;5075300;28;20132;-46
2021/08/16 11:04:16;;;;;;;13.73;4.15;;;;;;;;;;5075884;28;20103;-46
2021/08/16 11:07:00;;;;;;;16.33;6.32;;;;;;;;;;5073822;28;20606;-45
2021/08/16 11:09:26;;;;;;;11.73;4.72;;;;;;;;;;5075364;28;20055;-50
2021/08/16 11:11:52;;;;;;;23.90;10.07;;;;;;;;;;5078261;28;20103;-50
2021/08/16 11:14:22;;;;;;;22.65;4.60;;;;;;;;;;5071152;28;20016;-48
2021/08/16 11:16:48;;;;;;;11.07;4.30;;;;;;;;;;5074255;28;20053;-44
2021/08/16 11:19:13;;;;;;;9.45;4.72;;;;;;;;;;5074616;28;20021;-50
2021/08/16 11:21:38;;;;;;;18.20;6.22;;;;;;;;;;5075013;28;20387;-46
2021/08/16 11:24:04;;;;;;;11.38;4.72;;;;;;;;;;5074779;28;20020;-46
2021/08/16 11:26:29;;;;;;;8.15;3.90;;;;;;;;;;5077533;28;20368;-48
2021/08/16 11:29:04;;;;;;;19.45;10.25;;;;;;;;;;5069831;28;20055;-49
2021/08/16 11:31:30;;;;;;;14.80;6.40;;;;;;;;;;5068165;28;20384;-50
2021/08/16 11:34:06;;;;;;;13.90;5.15;;;;;;;;;;5076788;28;20055;-49
2021/08/16 11:36:35;;;;;;;7.30;4.40;;;;;;;;;;5073384;28;20383;-51
2021/08/16 11:39:00;;;;;;;14.23;7.17;;;;;;;;;;5075363;28;20024;-48
2021/08/16 11:41:29;;;;;;;10.90;6.78;;;;;;;;;;5075559;28;20507;-50
2021/08/16 11:43:55;;;;;;;19.80;5.70;;;;;;;;;;5072642;28;20042;-50
2021/08/16 11:46:20;;;;;;;10.90;4.85;;;;;;;;;;5076546;28;20493;-51
2021/08/16 11:48:53;;;;;;;13.25;6.85;;;;;;;;;;5076724;28;20419;-44
2021/08/16 11:51:18;;;;;;;8.55;3.90;;;;;;;;;;5070091;28;20093;-47
2021/08/16 11:53:44;;;;;;;10.68;6.57;;;;;;;;;;5067936;28;20020;-49
2021/08/16 11:56:10;;;;;;;9.38;6.38;;;;;;;;;;5078721;28;20044;-44
2021/08/16 11:58:36;;;;;;;11.80;5.28;;;;;;;;;;5075021;28;20024;-47
2021/08/16 12:01:02;;;;;;;14.98;6.25;;;;;;;;;;5073362;28;20031;-47
2021/08/16 12:03:28;;;;;;;18.17;4.60;;;;;;;;;;5071747;28;20088;-48
2021/08/16 12:05:53;;;;;;;11.50;4.50;;;;;;;;;;5072900;28;20101;-54
2021/08/16 12:08:21;;;;;;;15.68;6.88;;;;;;;;;;5078073;28;20048;-46
2021/08/16 12:10:47;;;;;;;21.67;6.60;;;;;;;;;;5069804;28;20021;-44
2021/08/16 12:13:12;;;;;;;32.28;6.80;;;;;;;;;;5073921;28;20427;-47
2021/08/16 12:15:44;;;;;;;13.70;5.90;;;;;;;;;;5076942;28;20668;-51
2021/08/16 12:18:09;;;;;;;8.45;4.53;;;;;;;;;;5074052;28;20027;-47
2021/08/16 12:20:54;;;;;;;13.70;4.45;;;;;;;;;;5070610;28;20032;-48
2021/08/16 12:23:23;;;;;;;8.55;3.85;;;;;;;;;;5074893;28;20031;-50
2021/08/16 12:25:49;;;;;;;5.35;3.05;;;;;;;;;;5073454;28;20078;-48
2021/08/16 12:28:14;;;;;;;8.88;5.22;;;;;;;;;;5074431;28;20406;-45
2021/08/16 12:30:39;;;;;;;8.82;3.92;;;;;;;;;;5075069;28;20020;-49
2021/08/16 12:33:08;;;;;;;11.55;4.32;;;;;;;;;;5073732;28;20012;-50
2021/08/16 12:35:34;;;;;;;7.72;3.17;;;;;;;;;;5071520;28;20024;-48
2021/08/16 12:38:00;;;;;;;16.65;5.40;;;;;;;;;;5070165;28;20173;-45
2021/08/16 12:40:25;;;;;;;14.38;3.67;;;;;;;;;;5072472;28;20665;-49
2021/08/16 12:42:53;;;;;;;4.63;2.58;;;;;;;;;;5072963;28;20522;-47
2021/08/16 12:45:18;;;;;;;5.05;1.88;;;;;;;;;;5077294;28;20031;-44
2021/08/16 12:47:44;;;;;;;19.08;6.15;;;;;;;;;;5074029;28;20082;-47
2021/08/16 12:50:09;;;;;;;5.07;3.00;;;;;;;;;;5066472;28;20110;-45
2021/08/16 12:52:35;;;;;;;8.38;4.53;;;;;;;;;;5073942;28;20648;-44
2021/08/16 12:55:01;;;;;;;15.93;4.43;;;;;;;;;;5075098;28;20021;-45
2021/08/16 12:57:26;;;;;;;7.78;3.45;;;;;;;;;;5073322;28;20112;-47
2021/08/16 12:59:51;;;;;;;8.27;5.75;;;;;;;;;;5070131;28;20046;-51
2021/08/16 13:02:21;;;;;;;19.13;7.68;;;;;;;;;;5074420;28;20066;-50
2021/08/16 13:04:46;;;;;;;13.55;5.32;;;;;;;;;;5072958;28;20024;-50
2021/08/16 13:07:12;;;;;;;14.20;5.57;;;;;;;;;;5075338;28;20028;-51
2021/08/16 13:09:37;;;;;;;14.98;5.57;;;;;;;;;;5073115;28;20016;-50
2021/08/16 13:12:02;;;;;;;4.55;3.10;;;;;;;;;;5074271;28;20439;-52
2021/08/16 13:14:28;;;;;;;5.15;3.33;;;;;;;;;;5073180;28;20032;-51
2021/08/16 13:16:53;;;;;;;14.82;4.32;;;;;;;;;;5070924;28;20507;-52
2021/08/16 13:19:18;;;;;;;10.30;4.50;;;;;;;;;;5074563;28;20028;-52
2021/08/16 13:21:44;;;;;;;30.50;5.15;;;;;;;;;;5074609;28;20023;-51
2021/08/16 13:24:09;;;;;;;13.10;5.95;;;;;;;;;;5076446;28;20032;-48
2021/08/16 13:26:35;;;;;;;19.48;5.10;;;;;;;;;;5072991;28;20369;-51
2021/08/16 13:29:00;;;;;;;4.45;3.03;;;;;;;;;;5072791;28;20013;-52
2021/08/16 13:31:26;;;;;;;11.10;4.45;;;;;;;;;;5072752;28;20062;-52
2021/08/16 13:33:51;;;;;;;8.93;5.18;;;;;;;;;;5070738;28;20036;-44
2021/08/16 13:36:16;;;;;;;11.60;4.68;;;;;;;;;;5074933;28;20524;-50
2021/08/16 13:38:42;;;;;;;6.03;3.78;;;;;;;;;;5072240;28;20020;-48
2021/08/16 13:41:07;;;;;;;13.77;4.35;;;;;;;;;;5072931;28;20514;-46
2021/08/16 13:43:32;;;;;;;8.77;4.20;;;;;;;;;;5073885;28;20161;-50
2021/08/16 13:45:58;;;;;;;8.02;5.20;;;;;;;;;;5074667;28;20028;-43
2021/08/16 13:48:23;;;;;;;5.85;3.58;;;;;;;;;;5074351;28;20050;-46
2021/08/16 13:50:48;;;;;;;6.90;3.55;;;;;;;;;;5072526;28;20020;-42
2021/08/16 13:53:14;;;;;;;17.23;5.13;;;;;;;;;;5071911;28;20479;-42
2021/08/16 13:55:39;;;;;;;16.80;4.85;;;;;;;;;;5076128;28;20029;-47
2021/08/16 13:58:04;;;;;;;9.40;4.22;;;;;;;;;;5067266;28;20013;-45
2021/08/16 14:00:30;;;;;;;7.55;2.70;;;;;;;;;;5070972;28;20024;-45
2021/08/16 14:02:55;;;;;;;11.45;5.40;;;;;;;;;;5074775;28;20110;-43
2021/08/16 14:05:20;;;;;;;5.72;3.60;;;;;;;;;;5071406;28;20106;-42
2021/08/16 14:07:46;;;;;;;3.47;1.77;;;;;;;;;;5068481;28;20032;-46
2021/08/16 14:10:12;;;;;;;10.43;5.00;;;;;;;;;;5076900;28;20016;-47
2021/08/16 14:12:40;;;;;;;13.90;2.65;;;;;;;;;;5073497;28;20028;-47
2021/08/16 14:15:06;;;;;;;7.60;3.17;;;;;;;;;;5073918;28;20027;-44
2021/08/16 14:17:32;;;;;;;13.77;4.13;;;;;;;;;;5074424;28;20024;-41
2021/08/16 14:19:57;;;;;;;18.15;5.20;;;;;;;;;;5073050;28;20103;-44
2021/08/16 14:22:22;;;;;;;6.70;3.33;;;;;;;;;;5075587;28;20115;-45
2021/08/16 14:24:48;;;;;;;13.43;2.70;;;;;;;;;;5073841;28;20035;-45
2021/08/16 14:27:13;;;;;;;12.77;6.80;;;;;;;;;;5074607;28;20108;-45